sensor_id;sensor_type;location;lat;lon;timestamp;temperature;humidity
59556;DHT22;45374;52.746;6.304;2022-12-20T00:01:12;8.50;99.90
59556;DHT22;45374;52.746;6.304;2022-12-20T00:03:38;8.50;99.90
59556;DHT22;45374;52.746;6.304;2022-12-20T00:06:05;8.60;99.90
59556;DHT22;45374;52.746;6.304;2022-12-20T00:08:31;8.60;99.90
59556;DHT22;45374;52.746;6.304;2022-12-20T00:11:00;8.60;99.90
59556;DHT22;45374;52.746;6.304;2022-12-20T00:13:25;8.60;99.90
59556;DHT22;45374;52.746;6.304;2022-12-20T00:16:12;8.60;99.90
59556;DHT22;45374;52.746;6.304;2022-12-20T00:18:39;8.70;99.90
59556;DHT22;45374;52.746;6.304;2022-12-20T00:21:08;8.70;99.90
59556;DHT22;45374;52.746;6.304;2022-12-20T00:23:34;8.70;99.90
59556;DHT22;45374;52.746;6.304;2022-12-20T00:26:12;8.80;99.90
59556;DHT22;45374;52.746;6.304;2022-12-20T00:28:39;8.80;99.90
59556;DHT22;45374;52.746;6.304;2022-12-20T00:31:06;8.90;99.90
59556;DHT22;45374;52.746;6.304;2022-12-20T00:33:33;8.90;99.90
59556;DHT22;45374;52.746;6.304;2022-12-20T00:35:59;8.80;99.90
59556;DHT22;45374;52.746;6.304;2022-12-20T00:38:25;8.80;99.90
59556;DHT22;45374;52.746;6.304;2022-12-20T00:41:09;8.90;99.90
59556;DHT22;45374;52.746;6.304;2022-12-20T00:43:36;8.80;99.90
59556;DHT22;45374;52.746;6.304;2022-12-20T00:46:02;8.80;99.90
59556;DHT22;45374;52.746;6.304;2022-12-20T00:48:29;8.80;99.90
59556;DHT22;45374;52.746;6.304;2022-12-20T00:51:04;8.70;99.90
59556;DHT22;45374;52.746;6.304;2022-12-20T00:53:31;8.70;99.90
59556;DHT22;45374;52.746;6.304;2022-12-20T00:55:57;8.70;99.90
59556;DHT22;45374;52.746;6.304;2022-12-20T00:58:24;8.60;99.90
59556;DHT22;45374;52.746;6.304;2022-12-20T01:00:51;8.60;99.90
59556;DHT22;45374;52.746;6.304;2022-12-20T01:03:16;8.60;99.90
59556;DHT22;45374;52.746;6.304;2022-12-20T01:05:59;8.70;99.90
59556;DHT22;45374;52.746;6.304;2022-12-20T01:08:27;8.70;99.90
59556;DHT22;45374;52.746;6.304;2022-12-20T01:11:14;8.60;99.90
59556;DHT22;45374;52.746;6.304;2022-12-20T01:13:44;8.60;99.90
59556;DHT22;45374;52.746;6.304;2022-12-20T01:16:17;8.60;99.90
59556;DHT22;45374;52.746;6.304;2022-12-20T01:18:43;8.60;99.90
59556;DHT22;45374;52.746;6.304;2022-12-20T01:21:12;8.70;99.90
59556;DHT22;45374;52.746;6.304;2022-12-20T01:23:39;8.60;99.90
59556;DHT22;45374;52.746;6.304;2022-12-20T01:26:07;8.60;99.90
59556;DHT22;45374;52.746;6.304;2022-12-20T01:28:37;8.60;99.90
59556;DHT22;45374;52.746;6.304;2022-12-20T01:31:12;8.60;99.90
59556;DHT22;45374;52.746;6.304;2022-12-20T01:33:38;8.60;99.90
59556;DHT22;45374;52.746;6.304;2022-12-20T01:36:06;8.70;99.90
59556;DHT22;45374;52.746;6.304;2022-12-20T01:38:32;8.70;99.90
59556;DHT22;45374;52.746;6.304;2022-12-20T01:40:58;8.60;99.90
59556;DHT22;45374;52.746;6.304;2022-12-20T01:43:43;8.60;99.90
59556;DHT22;45374;52.746;6.304;2022-12-20T01:46:10;8.60;99.90
59556;DHT22;45374;52.746;6.304;2022-12-20T01:48:36;8.70;99.90
59556;DHT22;45374;52.746;6.304;2022-12-20T01:51:03;8.60;99.90
59556;DHT22;45374;52.746;6.304;2022-12-20T01:53:29;8.70;99.90
59556;DHT22;45374;52.746;6.304;2022-12-20T01:55:57;8.70;99.90
59556;DHT22;45374;52.746;6.304;2022-12-20T01:58:24;8.80;99.90
59556;DHT22;45374;52.746;6.304;2022-12-20T02:00:50;8.80;99.90
59556;DHT22;45374;52.746;6.304;2022-12-20T02:03:16;8.80;99.90
59556;DHT22;45374;52.746;6.304;2022-12-20T02:05:44;8.80;99.90
59556;DHT22;45374;52.746;6.304;2022-12-20T02:08:11;8.70;99.90
59556;DHT22;45374;52.746;6.304;2022-12-20T02:16:29;8.80;99.90
59556;DHT22;45374;52.746;6.304;2022-12-20T02:25:12;8.90;99.90
59556;DHT22;45374;52.746;6.304;2022-12-20T02:30:35;9.00;99.90
59556;DHT22;45374;52.746;6.304;2022-12-20T02:33:03;9.00;99.90
59556;DHT22;45374;52.746;6.304;2022-12-20T02:35:32;9.10;99.90
59556;DHT22;45374;52.746;6.304;2022-12-20T02:38:01;9.00;99.90
59556;DHT22;45374;52.746;6.304;2022-12-20T02:40:31;9.00;99.90
59556;DHT22;45374;52.746;6.304;2022-12-20T02:43:02;9.10;99.90
59556;DHT22;45374;52.746;6.304;2022-12-20T02:45:32;9.00;99.90
59556;DHT22;45374;52.746;6.304;2022-12-20T02:48:09;9.10;99.90
59556;DHT22;45374;52.746;6.304;2022-12-20T02:50:38;9.00;99.90
59556;DHT22;45374;52.746;6.304;2022-12-20T02:53:06;8.90;99.90
59556;DHT22;45374;52.746;6.304;2022-12-20T02:58:32;9.10;99.90
59556;DHT22;45374;52.746;6.304;2022-12-20T03:01:02;9.00;99.90
59556;DHT22;45374;52.746;6.304;2022-12-20T03:03:31;9.10;99.90
59556;DHT22;45374;52.746;6.304;2022-12-20T03:05:57;9.00;99.90
59556;DHT22;45374;52.746;6.304;2022-12-20T03:08:22;9.00;99.90
59556;DHT22;45374;52.746;6.304;2022-12-20T03:10:49;9.10;99.90
59556;DHT22;45374;52.746;6.304;2022-12-20T03:13:15;9.00;99.90
59556;DHT22;45374;52.746;6.304;2022-12-20T03:15:41;9.00;99.90
59556;DHT22;45374;52.746;6.304;2022-12-20T03:18:07;9.00;99.90
59556;DHT22;45374;52.746;6.304;2022-12-20T03:20:32;9.10;99.90
59556;DHT22;45374;52.746;6.304;2022-12-20T03:22:58;9.00;99.90
59556;DHT22;45374;52.746;6.304;2022-12-20T03:25:24;9.00;99.90
59556;DHT22;45374;52.746;6.304;2022-12-20T03:27:49;9.00;99.90
59556;DHT22;45374;52.746;6.304;2022-12-20T03:30:15;9.00;99.90
59556;DHT22;45374;52.746;6.304;2022-12-20T03:32:41;9.00;99.90
59556;DHT22;45374;52.746;6.304;2022-12-20T03:35:07;9.10;99.90
59556;DHT22;45374;52.746;6.304;2022-12-20T03:37:32;9.00;99.90
59556;DHT22;45374;52.746;6.304;2022-12-20T03:39:58;9.00;99.90
59556;DHT22;45374;52.746;6.304;2022-12-20T03:42:23;8.90;99.90
59556;DHT22;45374;52.746;6.304;2022-12-20T03:44:49;9.00;99.90
59556;DHT22;45374;52.746;6.304;2022-12-20T03:47:14;9.00;99.90
59556;DHT22;45374;52.746;6.304;2022-12-20T03:49:40;9.10;99.90
59556;DHT22;45374;52.746;6.304;2022-12-20T03:52:06;9.10;99.90
59556;DHT22;45374;52.746;6.304;2022-12-20T03:54:31;9.00;99.90
59556;DHT22;45374;52.746;6.304;2022-12-20T03:56:57;9.10;99.90
59556;DHT22;45374;52.746;6.304;2022-12-20T03:59:23;9.10;99.90
59556;DHT22;45374;52.746;6.304;2022-12-20T04:01:49;9.00;99.90
59556;DHT22;45374;52.746;6.304;2022-12-20T04:04:15;9.10;99.90
59556;DHT22;45374;52.746;6.304;2022-12-20T04:06:41;9.00;99.90
59556;DHT22;45374;52.746;6.304;2022-12-20T04:09:06;9.10;99.90
59556;DHT22;45374;52.746;6.304;2022-12-20T04:11:32;9.10;99.90
59556;DHT22;45374;52.746;6.304;2022-12-20T04:13:58;9.10;99.90
59556;DHT22;45374;52.746;6.304;2022-12-20T04:16:27;9.10;99.90
59556;DHT22;45374;52.746;6.304;2022-12-20T04:18:53;9.10;99.90
59556;DHT22;45374;52.746;6.304;2022-12-20T04:21:27;9.10;99.90
59556;DHT22;45374;52.746;6.304;2022-12-20T04:23:53;9.00;99.90
59556;DHT22;45374;52.746;6.304;2022-12-20T04:26:19;9.00;99.90
59556;DHT22;45374;52.746;6.304;2022-12-20T04:28:45;9.00;99.90
59556;DHT22;45374;52.746;6.304;2022-12-20T04:31:11;9.10;99.90
59556;DHT22;45374;52.746;6.304;2022-12-20T04:33:37;9.10;99.90
59556;DHT22;45374;52.746;6.304;2022-12-20T04:36:03;9.10;99.90
59556;DHT22;45374;52.746;6.304;2022-12-20T04:38:29;9.20;99.90
59556;DHT22;45374;52.746;6.304;2022-12-20T04:40:55;9.20;99.90
59556;DHT22;45374;52.746;6.304;2022-12-20T04:43:22;9.20;99.90
59556;DHT22;45374;52.746;6.304;2022-12-20T04:45:49;9.30;99.90
59556;DHT22;45374;52.746;6.304;2022-12-20T04:48:15;9.20;99.90
59556;DHT22;45374;52.746;6.304;2022-12-20T04:50:41;9.30;99.90
59556;DHT22;45374;52.746;6.304;2022-12-20T04:53:10;9.40;99.90
59556;DHT22;45374;52.746;6.304;2022-12-20T04:55:54;9.40;99.90
59556;DHT22;45374;52.746;6.304;2022-12-20T04:58:20;9.40;99.90
59556;DHT22;45374;52.746;6.304;2022-12-20T05:00:46;9.40;99.90
59556;DHT22;45374;52.746;6.304;2022-12-20T05:03:12;9.40;99.90
59556;DHT22;45374;52.746;6.304;2022-12-20T05:05:38;9.40;99.90
59556;DHT22;45374;52.746;6.304;2022-12-20T05:08:04;9.50;99.90
59556;DHT22;45374;52.746;6.304;2022-12-20T05:10:30;9.40;99.90
59556;DHT22;45374;52.746;6.304;2022-12-20T05:12:55;9.40;99.90
59556;DHT22;45374;52.746;6.304;2022-12-20T05:15:21;9.40;99.90
59556;DHT22;45374;52.746;6.304;2022-12-20T05:17:46;9.40;99.90
59556;DHT22;45374;52.746;6.304;2022-12-20T05:20:12;9.40;99.90
59556;DHT22;45374;52.746;6.304;2022-12-20T05:22:38;9.40;99.90
59556;DHT22;45374;52.746;6.304;2022-12-20T05:25:22;9.50;99.90
59556;DHT22;45374;52.746;6.304;2022-12-20T05:28:06;9.50;99.90
59556;DHT22;45374;52.746;6.304;2022-12-20T05:30:32;9.50;99.90
59556;DHT22;45374;52.746;6.304;2022-12-20T05:32:57;9.50;99.90
59556;DHT22;45374;52.746;6.304;2022-12-20T05:35:23;9.50;99.90
59556;DHT22;45374;52.746;6.304;2022-12-20T05:37:49;9.50;99.90
59556;DHT22;45374;52.746;6.304;2022-12-20T05:40:14;9.50;99.90
59556;DHT22;45374;52.746;6.304;2022-12-20T05:42:40;9.50;99.90
59556;DHT22;45374;52.746;6.304;2022-12-20T05:45:06;9.50;99.90
59556;DHT22;45374;52.746;6.304;2022-12-20T05:47:32;9.50;99.90
59556;DHT22;45374;52.746;6.304;2022-12-20T05:50:01;9.50;99.90
59556;DHT22;45374;52.746;6.304;2022-12-20T05:52:26;9.60;99.90
59556;DHT22;45374;52.746;6.304;2022-12-20T05:54:52;9.40;99.90
59556;DHT22;45374;52.746;6.304;2022-12-20T05:57:17;9.50;99.90
59556;DHT22;45374;52.746;6.304;2022-12-20T05:59:43;9.60;99.90
59556;DHT22;45374;52.746;6.304;2022-12-20T06:02:09;9.50;99.90
59556;DHT22;45374;52.746;6.304;2022-12-20T06:04:36;9.60;99.90
59556;DHT22;45374;52.746;6.304;2022-12-20T06:07:03;9.60;99.90
59556;DHT22;45374;52.746;6.304;2022-12-20T06:09:30;9.60;99.90
59556;DHT22;45374;52.746;6.304;2022-12-20T06:11:56;9.60;99.90
59556;DHT22;45374;52.746;6.304;2022-12-20T06:14:21;9.60;99.90
59556;DHT22;45374;52.746;6.304;2022-12-20T06:16:47;9.70;99.90
59556;DHT22;45374;52.746;6.304;2022-12-20T06:19:13;9.70;99.90
59556;DHT22;45374;52.746;6.304;2022-12-20T06:21:38;9.70;99.90
59556;DHT22;45374;52.746;6.304;2022-12-20T06:24:04;9.70;99.90
59556;DHT22;45374;52.746;6.304;2022-12-20T06:26:30;9.70;99.90
59556;DHT22;45374;52.746;6.304;2022-12-20T06:29:01;9.70;99.90
59556;DHT22;45374;52.746;6.304;2022-12-20T06:31:27;9.70;99.90
59556;DHT22;45374;52.746;6.304;2022-12-20T06:33:52;9.70;99.90
59556;DHT22;45374;52.746;6.304;2022-12-20T06:36:18;9.60;99.90
59556;DHT22;45374;52.746;6.304;2022-12-20T06:38:44;9.70;99.90
59556;DHT22;45374;52.746;6.304;2022-12-20T06:41:10;9.60;99.90
59556;DHT22;45374;52.746;6.304;2022-12-20T06:43:36;9.80;99.90
59556;DHT22;45374;52.746;6.304;2022-12-20T06:46:01;9.70;99.90
59556;DHT22;45374;52.746;6.304;2022-12-20T06:48:27;9.70;99.90
59556;DHT22;45374;52.746;6.304;2022-12-20T06:50:52;9.70;99.90
59556;DHT22;45374;52.746;6.304;2022-12-20T06:53:18;9.70;99.90
59556;DHT22;45374;52.746;6.304;2022-12-20T06:55:46;9.70;99.90
59556;DHT22;45374;52.746;6.304;2022-12-20T06:58:13;9.70;99.90
59556;DHT22;45374;52.746;6.304;2022-12-20T07:00:38;9.70;99.90
59556;DHT22;45374;52.746;6.304;2022-12-20T07:03:04;9.70;99.90
59556;DHT22;45374;52.746;6.304;2022-12-20T07:05:29;9.70;99.90
59556;DHT22;45374;52.746;6.304;2022-12-20T07:07:55;9.80;99.90
59556;DHT22;45374;52.746;6.304;2022-12-20T07:10:21;9.60;99.90
59556;DHT22;45374;52.746;6.304;2022-12-20T07:12:46;9.70;99.90
59556;DHT22;45374;52.746;6.304;2022-12-20T07:15:12;9.60;99.90
59556;DHT22;45374;52.746;6.304;2022-12-20T07:17:37;9.70;99.90
59556;DHT22;45374;52.746;6.304;2022-12-20T07:20:03;9.70;99.90
59556;DHT22;45374;52.746;6.304;2022-12-20T07:22:29;9.70;99.90
59556;DHT22;45374;52.746;6.304;2022-12-20T07:24:55;9.70;99.90
59556;DHT22;45374;52.746;6.304;2022-12-20T07:27:20;9.70;99.90
59556;DHT22;45374;52.746;6.304;2022-12-20T07:29:46;9.80;99.90
59556;DHT22;45374;52.746;6.304;2022-12-20T07:32:11;9.70;99.90
59556;DHT22;45374;52.746;6.304;2022-12-20T07:34:38;9.70;99.90
59556;DHT22;45374;52.746;6.304;2022-12-20T07:37:04;9.70;99.90
59556;DHT22;45374;52.746;6.304;2022-12-20T07:39:29;9.70;99.90
59556;DHT22;45374;52.746;6.304;2022-12-20T07:41:55;9.70;99.90
59556;DHT22;45374;52.746;6.304;2022-12-20T07:44:22;9.80;99.90
59556;DHT22;45374;52.746;6.304;2022-12-20T07:46:48;9.80;99.90
59556;DHT22;45374;52.746;6.304;2022-12-20T07:49:13;9.70;99.90
59556;DHT22;45374;52.746;6.304;2022-12-20T07:51:43;9.70;99.90
59556;DHT22;45374;52.746;6.304;2022-12-20T07:54:12;9.60;99.90
59556;DHT22;45374;52.746;6.304;2022-12-20T07:56:42;9.70;99.90
59556;DHT22;45374;52.746;6.304;2022-12-20T07:59:13;9.70;99.90
59556;DHT22;45374;52.746;6.304;2022-12-20T08:01:41;9.80;99.90
59556;DHT22;45374;52.746;6.304;2022-12-20T08:04:15;9.70;99.90
59556;DHT22;45374;52.746;6.304;2022-12-20T08:06:42;9.70;99.90
59556;DHT22;45374;52.746;6.304;2022-12-20T08:09:10;9.70;99.90
59556;DHT22;45374;52.746;6.304;2022-12-20T08:11:40;9.80;99.90
59556;DHT22;45374;52.746;6.304;2022-12-20T08:14:08;9.80;99.90
59556;DHT22;45374;52.746;6.304;2022-12-20T08:16:34;9.70;99.90
59556;DHT22;45374;52.746;6.304;2022-12-20T08:19:00;9.80;99.90
59556;DHT22;45374;52.746;6.304;2022-12-20T08:21:26;9.70;99.90
59556;DHT22;45374;52.746;6.304;2022-12-20T08:23:51;9.80;99.90
59556;DHT22;45374;52.746;6.304;2022-12-20T08:26:17;9.80;99.90
59556;DHT22;45374;52.746;6.304;2022-12-20T08:28:43;9.80;99.90
59556;DHT22;45374;52.746;6.304;2022-12-20T08:31:09;9.80;99.90
59556;DHT22;45374;52.746;6.304;2022-12-20T08:33:37;9.80;99.90
59556;DHT22;45374;52.746;6.304;2022-12-20T08:36:06;9.70;99.90
59556;DHT22;45374;52.746;6.304;2022-12-20T08:38:32;9.80;99.90
59556;DHT22;45374;52.746;6.304;2022-12-20T08:43:29;9.80;99.90
59556;DHT22;45374;52.746;6.304;2022-12-20T08:45:56;9.80;99.90
59556;DHT22;45374;52.746;6.304;2022-12-20T08:48:22;9.80;99.90
59556;DHT22;45374;52.746;6.304;2022-12-20T08:50:55;9.80;99.90
59556;DHT22;45374;52.746;6.304;2022-12-20T08:53:21;9.90;99.90
59556;DHT22;45374;52.746;6.304;2022-12-20T08:55:47;9.90;99.90
59556;DHT22;45374;52.746;6.304;2022-12-20T08:58:12;9.90;99.90
59556;DHT22;45374;52.746;6.304;2022-12-20T09:00:38;10.00;99.90
59556;DHT22;45374;52.746;6.304;2022-12-20T09:03:04;9.90;99.90
59556;DHT22;45374;52.746;6.304;2022-12-20T09:05:31;9.90;99.90
59556;DHT22;45374;52.746;6.304;2022-12-20T09:07:57;9.90;99.90
59556;DHT22;45374;52.746;6.304;2022-12-20T09:10:22;9.90;99.90
59556;DHT22;45374;52.746;6.304;2022-12-20T09:12:48;9.90;99.90
59556;DHT22;45374;52.746;6.304;2022-12-20T09:15:14;10.00;99.90
59556;DHT22;45374;52.746;6.304;2022-12-20T09:17:39;10.00;99.90
59556;DHT22;45374;52.746;6.304;2022-12-20T09:20:05;10.00;99.90
59556;DHT22;45374;52.746;6.304;2022-12-20T09:22:31;10.00;99.90
59556;DHT22;45374;52.746;6.304;2022-12-20T09:24:56;9.90;99.90
59556;DHT22;45374;52.746;6.304;2022-12-20T09:27:22;10.00;99.90
59556;DHT22;45374;52.746;6.304;2022-12-20T09:29:48;10.00;99.90
59556;DHT22;45374;52.746;6.304;2022-12-20T09:32:13;10.10;99.90
59556;DHT22;45374;52.746;6.304;2022-12-20T09:34:39;10.00;99.90
59556;DHT22;45374;52.746;6.304;2022-12-20T09:37:06;10.00;99.90
59556;DHT22;45374;52.746;6.304;2022-12-20T09:39:32;10.10;99.90
59556;DHT22;45374;52.746;6.304;2022-12-20T09:41:58;10.00;99.90
59556;DHT22;45374;52.746;6.304;2022-12-20T09:44:37;10.10;99.90
59556;DHT22;45374;52.746;6.304;2022-12-20T09:47:26;10.00;99.90
59556;DHT22;45374;52.746;6.304;2022-12-20T09:49:54;10.00;99.90
59556;DHT22;45374;52.746;6.304;2022-12-20T09:55:13;10.00;99.90
59556;DHT22;45374;52.746;6.304;2022-12-20T09:57:51;10.00;99.90
59556;DHT22;45374;52.746;6.304;2022-12-20T10:00:19;9.90;99.90
59556;DHT22;45374;52.746;6.304;2022-12-20T10:02:46;10.00;99.90
59556;DHT22;45374;52.746;6.304;2022-12-20T10:05:19;9.90;99.90
59556;DHT22;45374;52.746;6.304;2022-12-20T10:08:22;9.90;99.90
59556;DHT22;45374;52.746;6.304;2022-12-20T10:11:25;10.00;99.90
59556;DHT22;45374;52.746;6.304;2022-12-20T10:14:08;9.90;99.90
59556;DHT22;45374;52.746;6.304;2022-12-20T10:16:54;10.00;99.90
59556;DHT22;45374;52.746;6.304;2022-12-20T10:22:19;10.00;99.90
59556;DHT22;45374;52.746;6.304;2022-12-20T10:24:55;9.90;99.90
59556;DHT22;45374;52.746;6.304;2022-12-20T10:27:23;9.90;99.90
59556;DHT22;45374;52.746;6.304;2022-12-20T10:29:49;9.90;99.90
59556;DHT22;45374;52.746;6.304;2022-12-20T10:32:19;10.00;99.90
59556;DHT22;45374;52.746;6.304;2022-12-20T10:35:04;9.90;99.90
59556;DHT22;45374;52.746;6.304;2022-12-20T10:37:57;10.00;99.90
59556;DHT22;45374;52.746;6.304;2022-12-20T10:40:47;10.00;99.90
59556;DHT22;45374;52.746;6.304;2022-12-20T10:43:17;10.00;99.90
59556;DHT22;45374;52.746;6.304;2022-12-20T10:46:06;10.10;99.90
59556;DHT22;45374;52.746;6.304;2022-12-20T10:48:37;10.00;99.90
59556;DHT22;45374;52.746;6.304;2022-12-20T10:53:36;10.10;99.90
59556;DHT22;45374;52.746;6.304;2022-12-20T10:56:16;10.10;99.90
59556;DHT22;45374;52.746;6.304;2022-12-20T10:59:00;10.10;99.90
59556;DHT22;45374;52.746;6.304;2022-12-20T11:01:35;10.00;99.90
59556;DHT22;45374;52.746;6.304;2022-12-20T11:04:06;10.00;99.90
59556;DHT22;45374;52.746;6.304;2022-12-20T11:06:45;10.10;99.90
59556;DHT22;45374;52.746;6.304;2022-12-20T11:12:00;10.10;99.90
59556;DHT22;45374;52.746;6.304;2022-12-20T11:14:28;10.20;99.90
59556;DHT22;45374;52.746;6.304;2022-12-20T11:16:56;10.20;99.90
59556;DHT22;45374;52.746;6.304;2022-12-20T11:19:42;10.20;99.90
59556;DHT22;45374;52.746;6.304;2022-12-20T11:22:35;10.20;99.90
59556;DHT22;45374;52.746;6.304;2022-12-20T11:25:11;10.30;99.90
59556;DHT22;45374;52.746;6.304;2022-12-20T11:30:47;10.30;99.90
59556;DHT22;45374;52.746;6.304;2022-12-20T11:33:34;10.40;99.90
59556;DHT22;45374;52.746;6.304;2022-12-20T11:38:55;10.30;99.90
59556;DHT22;45374;52.746;6.304;2022-12-20T11:41:56;10.40;99.90
59556;DHT22;45374;52.746;6.304;2022-12-20T11:53:26;10.20;99.90
59556;DHT22;45374;52.746;6.304;2022-12-20T11:55:59;10.20;99.90
59556;DHT22;45374;52.746;6.304;2022-12-20T11:58:40;10.20;99.90
59556;DHT22;45374;52.746;6.304;2022-12-20T12:01:12;10.20;99.90
59556;DHT22;45374;52.746;6.304;2022-12-20T12:03:42;10.20;99.90
59556;DHT22;45374;52.746;6.304;2022-12-20T12:08:48;10.20;99.90
59556;DHT22;45374;52.746;6.304;2022-12-20T12:11:30;10.10;99.90
59556;DHT22;45374;52.746;6.304;2022-12-20T12:13:59;10.10;99.90
59556;DHT22;45374;52.746;6.304;2022-12-20T12:16:34;10.20;99.90
59556;DHT22;45374;52.746;6.304;2022-12-20T12:19:02;10.10;99.90
59556;DHT22;45374;52.746;6.304;2022-12-20T12:21:35;10.10;99.90
59556;DHT22;45374;52.746;6.304;2022-12-20T12:24:12;10.20;99.90
59556;DHT22;45374;52.746;6.304;2022-12-20T12:26:41;10.20;99.90
59556;DHT22;45374;52.746;6.304;2022-12-20T12:31:43;10.20;99.90
59556;DHT22;45374;52.746;6.304;2022-12-20T12:37:34;10.30;99.90
59556;DHT22;45374;52.746;6.304;2022-12-20T12:43:15;10.20;99.90
59556;DHT22;45374;52.746;6.304;2022-12-20T12:45:57;10.30;99.90
59556;DHT22;45374;52.746;6.304;2022-12-20T12:48:37;10.30;99.90
59556;DHT22;45374;52.746;6.304;2022-12-20T12:51:05;10.20;99.90
59556;DHT22;45374;52.746;6.304;2022-12-20T12:53:43;10.30;99.90
59556;DHT22;45374;52.746;6.304;2022-12-20T13:01:54;10.20;99.90
59556;DHT22;45374;52.746;6.304;2022-12-20T13:04:24;10.20;99.90
59556;DHT22;45374;52.746;6.304;2022-12-20T13:11:50;10.20;99.90
59556;DHT22;45374;52.746;6.304;2022-12-20T13:16:47;10.30;99.90
59556;DHT22;45374;52.746;6.304;2022-12-20T13:19:31;10.20;99.90
59556;DHT22;45374;52.746;6.304;2022-12-20T13:24:59;10.30;99.90
59556;DHT22;45374;52.746;6.304;2022-12-20T13:27:38;10.30;99.90
59556;DHT22;45374;52.746;6.304;2022-12-20T13:32:58;10.30;99.90
59556;DHT22;45374;52.746;6.304;2022-12-20T13:35:29;10.30;99.90
59556;DHT22;45374;52.746;6.304;2022-12-20T13:38:01;10.30;99.90
59556;DHT22;45374;52.746;6.304;2022-12-20T13:40:45;10.30;99.90
59556;DHT22;45374;52.746;6.304;2022-12-20T13:48:51;10.30;99.90
59556;DHT22;45374;52.746;6.304;2022-12-20T13:51:22;10.40;99.90
59556;DHT22;45374;52.746;6.304;2022-12-20T13:53:57;10.30;99.90
59556;DHT22;45374;52.746;6.304;2022-12-20T13:58:56;10.40;99.90
59556;DHT22;45374;52.746;6.304;2022-12-20T14:01:24;10.30;99.90
59556;DHT22;45374;52.746;6.304;2022-12-20T14:03:51;10.30;99.90
59556;DHT22;45374;52.746;6.304;2022-12-20T14:06:18;10.30;99.90
59556;DHT22;45374;52.746;6.304;2022-12-20T14:08:50;10.30;99.90
59556;DHT22;45374;52.746;6.304;2022-12-20T14:11:19;10.30;99.90
59556;DHT22;45374;52.746;6.304;2022-12-20T14:13:55;10.40;99.90
59556;DHT22;45374;52.746;6.304;2022-12-20T14:16:22;10.30;99.90
59556;DHT22;45374;52.746;6.304;2022-12-20T14:19:00;10.40;99.90
59556;DHT22;45374;52.746;6.304;2022-12-20T14:21:26;10.40;99.90
59556;DHT22;45374;52.746;6.304;2022-12-20T14:23:55;10.30;99.90
59556;DHT22;45374;52.746;6.304;2022-12-20T14:26:25;10.40;99.90
59556;DHT22;45374;52.746;6.304;2022-12-20T14:28:56;10.40;99.90
59556;DHT22;45374;52.746;6.304;2022-12-20T14:31:36;10.40;99.90
59556;DHT22;45374;52.746;6.304;2022-12-20T14:36:39;10.40;99.90
59556;DHT22;45374;52.746;6.304;2022-12-20T14:39:25;10.40;99.90
59556;DHT22;45374;52.746;6.304;2022-12-20T14:41:59;10.30;99.90
59556;DHT22;45374;52.746;6.304;2022-12-20T14:44:27;10.40;99.90
59556;DHT22;45374;52.746;6.304;2022-12-20T14:46:55;10.30;99.90
59556;DHT22;45374;52.746;6.304;2022-12-20T14:49:29;10.40;99.90
59556;DHT22;45374;52.746;6.304;2022-12-20T15:10:35;10.40;99.90
59556;DHT22;45374;52.746;6.304;2022-12-20T15:13:01;10.40;99.90
59556;DHT22;45374;52.746;6.304;2022-12-20T15:15:27;10.30;99.90
59556;DHT22;45374;52.746;6.304;2022-12-20T15:17:52;10.30;99.90
59556;DHT22;45374;52.746;6.304;2022-12-20T15:20:18;10.30;99.90
59556;DHT22;45374;52.746;6.304;2022-12-20T15:22:44;10.40;99.90
59556;DHT22;45374;52.746;6.304;2022-12-20T15:25:16;10.30;99.90
59556;DHT22;45374;52.746;6.304;2022-12-20T15:27:42;10.30;99.90
59556;DHT22;45374;52.746;6.304;2022-12-20T15:30:12;10.30;99.90
59556;DHT22;45374;52.746;6.304;2022-12-20T15:32:41;10.40;99.90
59556;DHT22;45374;52.746;6.304;2022-12-20T15:35:12;10.40;99.90
59556;DHT22;45374;52.746;6.304;2022-12-20T15:37:39;10.30;99.90
59556;DHT22;45374;52.746;6.304;2022-12-20T15:40:05;10.30;99.90
59556;DHT22;45374;52.746;6.304;2022-12-20T15:42:31;10.40;99.90
59556;DHT22;45374;52.746;6.304;2022-12-20T15:44:56;10.30;99.90
59556;DHT22;45374;52.746;6.304;2022-12-20T15:47:22;10.30;99.90
59556;DHT22;45374;52.746;6.304;2022-12-20T15:49:48;10.30;99.90
59556;DHT22;45374;52.746;6.304;2022-12-20T15:52:19;10.30;99.90
59556;DHT22;45374;52.746;6.304;2022-12-20T15:54:46;10.30;99.90
59556;DHT22;45374;52.746;6.304;2022-12-20T15:57:13;10.30;99.90
59556;DHT22;45374;52.746;6.304;2022-12-20T15:59:39;10.30;99.90
59556;DHT22;45374;52.746;6.304;2022-12-20T16:02:34;10.20;99.90
59556;DHT22;45374;52.746;6.304;2022-12-20T16:05:00;10.30;99.90
59556;DHT22;45374;52.746;6.304;2022-12-20T16:07:26;10.30;99.90
59556;DHT22;45374;52.746;6.304;2022-12-20T16:09:52;10.20;99.90
59556;DHT22;45374;52.746;6.304;2022-12-20T16:12:23;10.30;99.90
59556;DHT22;45374;52.746;6.304;2022-12-20T16:14:49;10.20;99.90
59556;DHT22;45374;52.746;6.304;2022-12-20T16:17:16;10.20;99.90
59556;DHT22;45374;52.746;6.304;2022-12-20T16:19:42;10.30;99.90
59556;DHT22;45374;52.746;6.304;2022-12-20T16:22:20;10.20;99.90
59556;DHT22;45374;52.746;6.304;2022-12-20T16:24:46;10.20;99.90
59556;DHT22;45374;52.746;6.304;2022-12-20T16:27:13;10.20;99.90
59556;DHT22;45374;52.746;6.304;2022-12-20T16:29:38;10.20;99.90
59556;DHT22;45374;52.746;6.304;2022-12-20T16:32:16;10.20;99.90
59556;DHT22;45374;52.746;6.304;2022-12-20T16:34:43;10.20;99.90
59556;DHT22;45374;52.746;6.304;2022-12-20T16:37:08;10.30;99.90
59556;DHT22;45374;52.746;6.304;2022-12-20T16:39:36;10.20;99.90
59556;DHT22;45374;52.746;6.304;2022-12-20T16:42:01;10.20;99.90
59556;DHT22;45374;52.746;6.304;2022-12-20T16:44:27;10.20;99.90
59556;DHT22;45374;52.746;6.304;2022-12-20T16:46:52;10.20;99.90
59556;DHT22;45374;52.746;6.304;2022-12-20T16:49:18;10.20;99.90
59556;DHT22;45374;52.746;6.304;2022-12-20T16:51:45;10.20;99.90
59556;DHT22;45374;52.746;6.304;2022-12-20T16:54:19;10.10;99.90
59556;DHT22;45374;52.746;6.304;2022-12-20T16:56:47;10.30;99.90
59556;DHT22;45374;52.746;6.304;2022-12-20T16:59:15;10.20;99.90
59556;DHT22;45374;52.746;6.304;2022-12-20T17:01:41;10.30;99.90
59556;DHT22;45374;52.746;6.304;2022-12-20T17:04:13;10.30;99.90
59556;DHT22;45374;52.746;6.304;2022-12-20T17:06:40;10.20;99.90
59556;DHT22;45374;52.746;6.304;2022-12-20T17:09:07;10.20;99.90
59556;DHT22;45374;52.746;6.304;2022-12-20T17:11:32;10.30;99.90
59556;DHT22;45374;52.746;6.304;2022-12-20T17:13:59;10.20;99.90
59556;DHT22;45374;52.746;6.304;2022-12-20T17:16:25;10.20;99.90
59556;DHT22;45374;52.746;6.304;2022-12-20T17:18:53;10.20;99.90
59556;DHT22;45374;52.746;6.304;2022-12-20T17:21:34;10.20;99.90
59556;DHT22;45374;52.746;6.304;2022-12-20T17:24:01;10.20;99.90
59556;DHT22;45374;52.746;6.304;2022-12-20T17:26:29;10.20;99.90
59556;DHT22;45374;52.746;6.304;2022-12-20T17:28:56;10.20;99.90
59556;DHT22;45374;52.746;6.304;2022-12-20T17:31:37;10.10;99.90
59556;DHT22;45374;52.746;6.304;2022-12-20T17:36:36;10.20;99.90
59556;DHT22;45374;52.746;6.304;2022-12-20T17:39:02;10.10;99.90
59556;DHT22;45374;52.746;6.304;2022-12-20T17:41:30;10.10;99.90